Time;durP1;ratioP1;P1;durP2;ratioP2;P2;SDS_P1;SDS_P2;PMS_P1;PMS_P2;Temp;Humidity;BMP_temperature;BMP_pressure;BME280_temperature;BME280_humidity;BME280_pressure;Samples;Min_cycle;Max_cycle;Signal;HPM_P1;HPM_P2
2024/01/02 00:03:31;;;;;;;;;;;;;;;2.58;100.00;95238.84;10543456;28;1941;-69
2024/01/02 00:08:34;;;;;;;;;;;;;;;2.62;100.00;95237.34;10544068;28;2295;-64
2024/01/02 00:13:36;;;;;;;;;;;;;;;2.56;100.00;95230.34;10552107;28;1977;-64
2024/01/02 00:18:39;;;;;;;;;;;;;;;2.48;100.00;95213.97;10551543;28;2049;-64
2024/01/02 00:23:41;;;;;;;;;;;;;;;2.49;100.00;95203.16;10556219;27;2057;-72
2024/01/02 00:28:44;;;;;;;;;;;;;;;2.45;100.00;95202.00;10554642;28;1915;-70
2024/01/02 00:33:46;;;;;;;;;;;;;;;2.41;100.00;95195.53;10557913;28;1978;-65
2024/01/02 00:38:49;;;;;;;;;;;;;;;2.44;100.00;95187.94;10554356;27;2412;-64
2024/01/02 00:43:52;;;;;;;;;;;;;;;2.43;100.00;95178.38;10549553;28;2131;-64
2024/01/02 00:48:54;;;;;;;;;;;;;;;2.40;100.00;95180.66;10548428;28;2024;-64
2024/01/02 00:53:58;;;;;;;;;;;;;;;2.42;100.00;95168.81;10548209;27;2195;-64
2024/01/02 00:59:01;;;;;;;;;;;;;;;2.39;100.00;95161.31;10556942;28;4694;-64
2024/01/02 01:04:04;;;;;;;;;;;;;;;2.45;100.00;95151.59;10557887;28;1867;-63
2024/01/02 01:09:06;;;;;;;;;;;;;;;2.55;100.00;95145.69;10550741;28;1887;-64
2024/01/02 01:14:08;;;;;;;;;;;;;;;2.58;100.00;95132.72;10544542;28;2060;-62
2024/01/02 01:19:11;;;;;;;;;;;;;;;2.60;100.00;95116.56;10550533;28;1950;-64
2024/01/02 01:24:13;;;;;;;;;;;;;;;2.70;100.00;95122.06;10546744;28;1935;-64
2024/01/02 01:29:17;;;;;;;;;;;;;;;2.82;100.00;95114.03;10553529;28;2187;-64
2024/01/02 01:34:19;;;;;;;;;;;;;;;2.91;100.00;95109.91;10540441;27;2158;-64
2024/01/02 01:39:22;;;;;;;;;;;;;;;2.97;100.00;95112.41;10546352;27;2173;-64
2024/01/02 01:44:24;;;;;;;;;;;;;;;3.02;100.00;95113.53;10549329;27;2053;-63
2024/01/02 01:49:27;;;;;;;;;;;;;;;3.06;100.00;95118.13;10552285;28;1892;-64
2024/01/02 01:54:29;;;;;;;;;;;;;;;3.12;100.00;95117.16;10553652;28;2014;-63
2024/01/02 01:59:32;;;;;;;;;;;;;;;3.10;100.00;95113.13;10543687;27;5051;-66
2024/01/02 02:04:34;;;;;;;;;;;;;;;3.09;100.00;95106.19;10548601;27;1927;-64
2024/01/02 02:09:37;;;;;;;;;;;;;;;3.11;100.00;95104.91;10549477;27;1899;-64
2024/01/02 02:14:39;;;;;;;;;;;;;;;3.14;100.00;95099.13;10549076;28;2018;-64
2024/01/02 02:19:42;;;;;;;;;;;;;;;3.15;100.00;95084.00;10546634;28;2008;-64
2024/01/02 02:24:44;;;;;;;;;;;;;;;3.17;100.00;95077.38;10558160;27;1971;-64
2024/01/02 02:29:47;;;;;;;;;;;;;;;3.19;100.00;95072.66;10543490;28;2169;-65
2024/01/02 02:34:49;;;;;;;;;;;;;;;3.29;100.00;95068.50;10547431;28;1985;-64
2024/01/02 02:39:51;;;;;;;;;;;;;;;3.30;100.00;95073.56;10543027;27;2139;-68
2024/01/02 02:44:54;;;;;;;;;;;;;;;3.35;100.00;95059.56;10554574;27;1899;-69
2024/01/02 02:49:57;;;;;;;;;;;;;;;3.38;100.00;95056.44;10548735;28;1992;-70
2024/01/02 02:54:59;;;;;;;;;;;;;;;3.50;100.00;95057.91;10556195;27;1984;-70
2024/01/02 03:00:03;;;;;;;;;;;;;;;3.48;100.00;95043.25;10556347;28;5039;-65
2024/01/02 03:05:06;;;;;;;;;;;;;;;3.48;100.00;95035.28;10550815;28;1953;-64
2024/01/02 03:10:10;;;;;;;;;;;;;;;3.55;100.00;95030.59;10544704;28;1946;-65
2024/01/02 03:15:13;;;;;;;;;;;;;;;3.52;100.00;95031.09;10548775;28;1985;-64
2024/01/02 03:20:16;;;;;;;;;;;;;;;3.52;100.00;95037.22;10550770;27;2051;-64
2024/01/02 03:25:18;;;;;;;;;;;;;;;3.54;100.00;95028.97;10551009;28;2061;-65
2024/01/02 03:30:21;;;;;;;;;;;;;;;3.55;100.00;95013.84;10547961;28;2120;-64
2024/01/02 03:35:23;;;;;;;;;;;;;;;3.46;100.00;95000.19;10547237;28;2055;-64
2024/01/02 03:40:26;;;;;;;;;;;;;;;3.48;100.00;94982.16;10557722;28;2065;-64
2024/01/02 03:45:28;;;;;;;;;;;;;;;3.50;100.00;94977.41;10546845;28;2123;-64
2024/01/02 03:50:30;;;;;;;;;;;;;;;3.57;100.00;94974.56;10561468;27;2288;-64
2024/01/02 04:01:17;;;;;;;;;;;;;;;3.65;100.00;94961.63;10548675;27;1923;-64
2024/01/02 04:06:21;;;;;;;;;;;;;;;3.71;100.00;94954.50;10555166;28;2064;-67
2024/01/02 04:11:23;;;;;;;;;;;;;;;3.77;100.00;94943.66;10551816;28;1891;-69
2024/01/02 04:16:26;;;;;;;;;;;;;;;3.76;100.00;94936.75;10559862;27;1993;-65
2024/01/02 04:21:28;;;;;;;;;;;;;;;3.86;100.00;94928.06;10550240;28;2037;-64
2024/01/02 04:26:30;;;;;;;;;;;;;;;3.83;100.00;94931.22;10550570;27;2152;-65
2024/01/02 04:31:33;;;;;;;;;;;;;;;3.83;100.00;94935.75;10553889;27;2131;-65
2024/01/02 04:36:35;;;;;;;;;;;;;;;3.85;100.00;94933.63;10551875;27;1942;-65
2024/01/02 04:41:38;;;;;;;;;;;;;;;3.88;100.00;94931.28;10554665;28;1960;-64
2024/01/02 04:46:40;;;;;;;;;;;;;;;3.85;100.00;94920.34;10564650;27;1982;-64
2024/01/02 04:51:42;;;;;;;;;;;;;;;3.82;100.00;94913.69;10560062;27;2323;-66
2024/01/02 04:56:45;;;;;;;;;;;;;;;3.75;100.00;94897.09;10568862;27;4956;-63
2024/01/02 05:01:47;;;;;;;;;;;;;;;3.83;100.00;94891.34;10550508;28;2056;-64
2024/01/02 05:06:50;;;;;;;;;;;;;;;3.79;100.00;94880.41;10558900;27;1899;-63
2024/01/02 05:11:53;;;;;;;;;;;;;;;3.77;100.00;94882.53;10542907;28;2015;-64
2024/01/02 05:16:55;;;;;;;;;;;;;;;3.86;100.00;94882.06;10548946;28;1976;-64
2024/01/02 05:21:58;;;;;;;;;;;;;;;3.87;100.00;94862.38;10554291;27;2065;-64
2024/01/02 05:27:00;;;;;;;;;;;;;;;3.94;100.00;94849.69;10549670;27;1990;-69
2024/01/02 05:32:02;;;;;;;;;;;;;;;4.02;100.00;94833.28;10545612;28;2061;-64
2024/01/02 05:37:05;;;;;;;;;;;;;;;4.05;100.00;94830.91;10546771;27;2149;-63
2024/01/02 05:42:07;;;;;;;;;;;;;;;4.12;100.00;94785.47;10548824;28;1916;-63
2024/01/02 05:47:10;;;;;;;;;;;;;;;4.25;100.00;94774.34;10545764;28;1948;-65
2024/01/02 05:52:12;;;;;;;;;;;;;;;4.47;100.00;94778.75;10543493;28;1944;-64
2024/01/02 05:57:15;;;;;;;;;;;;;;;4.61;100.00;94762.03;10549204;27;4935;-67
2024/01/02 06:02:17;;;;;;;;;;;;;;;4.75;100.00;94757.00;10548969;28;2372;-67
2024/01/02 06:07:20;;;;;;;;;;;;;;;4.91;100.00;94757.06;10548416;28;2065;-65
2024/01/02 06:12:22;;;;;;;;;;;;;;;5.03;100.00;94752.31;10549920;28;2112;-64
2024/01/02 06:17:25;;;;;;;;;;;;;;;5.11;100.00;94741.13;10546650;28;2035;-64
2024/01/02 06:22:28;;;;;;;;;;;;;;;5.32;100.00;94732.09;10545790;28;2060;-64
2024/01/02 06:27:30;;;;;;;;;;;;;;;5.52;100.00;94730.47;10545402;28;2133;-64
2024/01/02 06:32:33;;;;;;;;;;;;;;;5.73;100.00;94729.44;10549275;27;1955;-65
2024/01/02 06:37:36;;;;;;;;;;;;;;;5.74;100.00;94720.34;10546529;28;2002;-65
2024/01/02 06:42:38;;;;;;;;;;;;;;;5.56;100.00;94734.22;10541067;28;2010;-64
2024/01/02 06:47:40;;;;;;;;;;;;;;;5.46;100.00;94702.22;10558169;28;2178;-64
2024/01/02 06:52:43;;;;;;;;;;;;;;;5.31;100.00;94682.53;10552070;27;2001;-65
2024/01/02 06:57:47;;;;;;;;;;;;;;;5.26;100.00;94682.50;10558549;27;4967;-63
2024/01/02 07:02:50;;;;;;;;;;;;;;;5.21;100.00;94679.84;10555385;28;2046;-64
2024/01/02 07:07:52;;;;;;;;;;;;;;;5.15;100.00;94692.41;10555503;28;2241;-64
2024/01/02 07:12:55;;;;;;;;;;;;;;;5.17;100.00;94696.66;10529122;27;2096;-64
2024/01/02 07:17:58;;;;;;;;;;;;;;;5.21;100.00;94679.84;10543642;28;2072;-64
2024/01/02 07:23:00;;;;;;;;;;;;;;;5.14;100.00;94668.66;10546446;28;1914;-65
2024/01/02 07:28:03;;;;;;;;;;;;;;;5.17;100.00;94672.66;10549683;28;1942;-74
2024/01/02 07:33:06;;;;;;;;;;;;;;;5.04;100.00;94653.50;10554061;28;1878;-67
2024/01/02 07:38:10;;;;;;;;;;;;;;;5.01;100.00;94637.22;10549301;28;2018;-67
2024/01/02 07:43:13;;;;;;;;;;;;;;;5.06;100.00;94621.25;10548656;28;2328;-67
2024/01/02 07:48:15;;;;;;;;;;;;;;;5.00;100.00;94614.31;10558348;28;2045;-66
2024/01/02 07:53:20;;;;;;;;;;;;;;;5.07;100.00;94615.66;10553811;28;1904;-68
2024/01/02 07:58:23;;;;;;;;;;;;;;;5.10;100.00;94640.97;10555296;28;4972;-68
2024/01/02 08:03:26;;;;;;;;;;;;;;;5.17;100.00;94635.38;10551328;28;2064;-69
2024/01/02 08:08:28;;;;;;;;;;;;;;;5.23;100.00;94623.66;10558156;28;2024;-67
2024/01/02 08:13:31;;;;;;;;;;;;;;;5.13;100.00;94619.91;10559241;28;1912;-67
2024/01/02 08:18:39;;;;;;;;;;;;;;;5.17;100.00;94625.53;10555478;28;1918;-70
2024/01/02 08:23:42;;;;;;;;;;;;;;;5.10;100.00;94622.31;10537717;28;1949;-73
2024/01/02 08:28:45;;;;;;;;;;;;;;;5.09;100.00;94613.53;10548223;28;2172;-71
2024/01/02 08:33:47;;;;;;;;;;;;;;;4.89;100.00;94609.00;10561276;28;1952;-74
2024/01/02 08:38:50;;;;;;;;;;;;;;;4.78;100.00;94594.09;10570059;28;1923;-70
2024/01/02 08:43:52;;;;;;;;;;;;;;;4.73;100.00;94599.41;10559751;28;2557;-73
2024/01/02 08:48:55;;;;;;;;;;;;;;;4.74;100.00;94600.22;10561083;27;2322;-69
2024/01/02 08:53:58;;;;;;;;;;;;;;;4.68;100.00;94601.28;10566559;28;2110;-71
2024/01/02 08:59:00;;;;;;;;;;;;;;;4.70;100.00;94599.13;10560996;28;4884;-71
2024/01/02 09:04:04;;;;;;;;;;;;;;;4.81;100.00;94593.56;10560056;28;2357;-69
2024/01/02 09:09:08;;;;;;;;;;;;;;;4.92;100.00;94596.22;10563658;28;2073;-67
2024/01/02 09:14:11;;;;;;;;;;;;;;;4.94;100.00;94604.75;10556806;28;1919;-69
2024/01/02 09:19:13;;;;;;;;;;;;;;;4.93;100.00;94603.94;10564351;28;2104;-72
2024/01/02 09:24:18;;;;;;;;;;;;;;;5.03;100.00;94601.28;10558815;27;2035;-72
2024/01/02 09:29:23;;;;;;;;;;;;;;;5.14;100.00;94596.72;10565539;27;1897;-70
2024/01/02 09:34:26;;;;;;;;;;;;;;;5.33;100.00;94597.78;10558795;28;1966;-68
2024/01/02 09:39:28;;;;;;;;;;;;;;;5.42;100.00;94588.19;10555437;28;2113;-70
2024/01/02 09:44:30;;;;;;;;;;;;;;;5.55;100.00;94578.03;10558803;28;2151;-70
2024/01/02 09:49:33;;;;;;;;;;;;;;;5.76;100.00;94574.22;10556559;27;2064;-71
2024/01/02 09:54:36;;;;;;;;;;;;;;;6.08;100.00;94570.38;10551082;28;2029;-67
2024/01/02 09:59:38;;;;;;;;;;;;;;;6.43;100.00;94561.38;10550204;28;2087;-69
2024/01/02 10:04:41;;;;;;;;;;;;;;;6.73;100.00;94555.03;10549124;28;2031;-68
2024/01/02 10:09:43;;;;;;;;;;;;;;;7.05;100.00;94536.59;10556353;27;1965;-70
2024/01/02 10:14:45;;;;;;;;;;;;;;;7.35;100.00;94520.53;10554881;28;2243;-69
2024/01/02 10:19:48;;;;;;;;;;;;;;;7.62;100.00;94522.66;10553166;28;2078;-73
2024/01/02 10:24:50;;;;;;;;;;;;;;;7.85;100.00;94517.28;10552674;27;2095;-70
2024/01/02 10:29:53;;;;;;;;;;;;;;;7.88;100.00;94529.28;10550322;27;2131;-71
2024/01/02 10:34:55;;;;;;;;;;;;;;;8.02;100.00;94516.81;10551291;27;2035;-70
2024/01/02 10:39:58;;;;;;;;;;;;;;;8.08;100.00;94502.28;10554582;28;2016;-69
2024/01/02 10:45:00;;;;;;;;;;;;;;;8.13;100.00;94502.19;10546400;28;2851;-70
2024/01/02 10:50:03;;;;;;;;;;;;;;;8.22;100.00;94509.59;10547555;27;1967;-72
2024/01/02 10:55:05;;;;;;;;;;;;;;;8.31;100.00;94513.19;10552971;28;2136;-71
2024/01/02 11:00:10;;;;;;;;;;;;;;;8.38;100.00;94502.94;10547144;28;4909;-69
2024/01/02 11:05:12;;;;;;;;;;;;;;;8.39;100.00;94515.25;10550659;27;2000;-68
2024/01/02 11:10:15;;;;;;;;;;;;;;;8.42;100.00;94484.44;10551666;27;1918;-69
2024/01/02 11:15:17;;;;;;;;;;;;;;;8.47;100.00;94492.41;10549089;28;1982;-69
2024/01/02 11:20:20;;;;;;;;;;;;;;;8.44;100.00;94464.28;10546198;28;1989;-69
2024/01/02 11:25:23;;;;;;;;;;;;;;;8.47;100.00;94474.44;10546924;28;2014;-68
2024/01/02 11:30:41;;;;;;;;;;;;;;;8.56;100.00;94474.56;10552333;28;2248;-68
2024/01/02 11:35:44;;;;;;;;;;;;;;;8.61;100.00;94461.88;10552546;28;2120;-68
2024/01/02 11:40:46;;;;;;;;;;;;;;;8.65;100.00;94436.13;10552866;28;2096;-70
2024/01/02 11:45:49;;;;;;;;;;;;;;;8.85;100.00;94445.69;10547355;28;1908;-72
2024/01/02 11:50:51;;;;;;;;;;;;;;;9.05;100.00;94446.41;10548746;28;2069;-70
2024/01/02 11:55:55;;;;;;;;;;;;;;;9.25;100.00;94424.59;10545015;28;4913;-70
2024/01/02 12:00:57;;;;;;;;;;;;;;;9.46;100.00;94408.88;10553686;28;2124;-70
2024/01/02 12:06:00;;;;;;;;;;;;;;;9.58;100.00;94395.75;10552753;28;2263;-71
2024/01/02 12:11:04;;;;;;;;;;;;;;;9.68;100.00;94405.50;10564793;28;2265;-69
2024/01/02 12:16:06;;;;;;;;;;;;;;;9.83;100.00;94386.34;10556516;27;2106;-68
2024/01/02 12:21:09;;;;;;;;;;;;;;;9.70;100.00;94353.09;10562268;28;2049;-69
2024/01/02 12:26:12;;;;;;;;;;;;;;;9.73;100.00;94360.56;10564749;28;1915;-69
2024/01/02 12:31:15;;;;;;;;;;;;;;;9.90;100.00;94349.16;10553468;28;2108;-68
2024/01/02 12:36:20;;;;;;;;;;;;;;;9.91;100.00;94349.94;10554263;27;2091;-67
2024/01/02 12:41:22;;;;;;;;;;;;;;;9.88;100.00;94340.63;10556489;27;2199;-68
2024/01/02 12:46:24;;;;;;;;;;;;;;;9.97;100.00;94333.41;10558380;27;1907;-70
2024/01/02 12:51:27;;;;;;;;;;;;;;;9.95;100.00;94345.56;10557085;27;1913;-68
2024/01/02 12:56:31;;;;;;;;;;;;;;;10.00;100.00;94351.63;10554425;28;5254;-72
2024/01/02 13:01:34;;;;;;;;;;;;;;;10.00;100.00;94348.94;10561089;27;2077;-69
2024/01/02 13:06:37;;;;;;;;;;;;;;;10.06;100.00;94349.59;10557391;28;2377;-74
2024/01/02 13:11:39;;;;;;;;;;;;;;;10.09;100.00;94362.41;10554541;27;2140;-72
2024/01/02 13:16:42;;;;;;;;;;;;;;;10.02;100.00;94352.09;10564997;27;2052;-70
2024/01/02 13:21:45;;;;;;;;;;;;;;;9.99;100.00;94335.81;10555488;28;2145;-68
2024/01/02 13:26:48;;;;;;;;;;;;;;;10.05;100.00;94350.69;10548553;28;2149;-70
2024/01/02 13:31:53;;;;;;;;;;;;;;;10.01;100.00;94322.88;10547451;28;3152;-72
2024/01/02 13:36:56;;;;;;;;;;;;;;;10.04;100.00;94327.63;10560668;28;2031;-73
2024/01/02 13:41:58;;;;;;;;;;;;;;;9.99;100.00;94328.56;10554126;28;2458;-67
2024/01/02 13:47:01;;;;;;;;;;;;;;;9.93;100.00;94321.72;10558814;28;2482;-68
2024/01/02 13:52:03;;;;;;;;;;;;;;;9.93;100.00;94318.25;10552411;27;2066;-67
2024/01/02 13:57:05;;;;;;;;;;;;;;;9.88;100.00;94332.56;10546737;28;4850;-68
2024/01/02 14:02:08;;;;;;;;;;;;;;;9.90;100.00;94316.94;10552476;28;2378;-66
2024/01/02 14:07:10;;;;;;;;;;;;;;;9.87;100.00;94298.78;10556278;28;3850;-70
2024/01/02 14:12:13;;;;;;;;;;;;;;;9.87;100.00;94295.31;10555024;27;2117;-67
2024/01/02 14:17:16;;;;;;;;;;;;;;;9.84;100.00;94287.84;10550218;28;1942;-67
2024/01/02 14:22:18;;;;;;;;;;;;;;;9.87;100.00;94287.25;10548274;28;2223;-66
2024/01/02 14:27:21;;;;;;;;;;;;;;;9.86;100.00;94283.78;10551651;28;2134;-68
2024/01/02 14:32:23;;;;;;;;;;;;;;;9.85;100.00;94262.59;10551559;28;1916;-68
2024/01/02 14:37:26;;;;;;;;;;;;;;;9.85;100.00;94265.28;10548124;28;1994;-67
2024/01/02 14:42:28;;;;;;;;;;;;;;;9.88;100.00;94273.53;10552375;28;1929;-68
2024/01/02 14:47:31;;;;;;;;;;;;;;;9.92;100.00;94258.38;10552570;27;2230;-67
2024/01/02 14:52:34;;;;;;;;;;;;;;;9.88;100.00;94259.31;10554164;27;2089;-67
2024/01/02 14:57:37;;;;;;;;;;;;;;;9.86;100.00;94282.97;10544423;28;4913;-68
2024/01/02 15:02:41;;;;;;;;;;;;;;;9.71;100.00;94276.88;10551150;28;2056;-70
2024/01/02 15:07:44;;;;;;;;;;;;;;;9.61;100.00;94269.06;10551315;28;2203;-70
2024/01/02 15:12:46;;;;;;;;;;;;;;;9.51;100.00;94247.84;10547184;28;2030;-67
2024/01/02 15:17:49;;;;;;;;;;;;;;;9.55;100.00;94256.88;10549287;27;1998;-67
2024/01/02 15:22:51;;;;;;;;;;;;;;;9.56;100.00;94247.72;10542403;28;2026;-68
2024/01/02 15:27:54;;;;;;;;;;;;;;;9.51;100.00;94249.72;10552890;28;1934;-66
2024/01/02 15:32:56;;;;;;;;;;;;;;;9.44;100.00;94244.78;10546151;28;2888;-67
2024/01/02 15:37:59;;;;;;;;;;;;;;;9.33;100.00;94262.19;10544242;28;1981;-68
2024/01/02 15:43:02;;;;;;;;;;;;;;;9.21;100.00;94271.53;10544720;28;1907;-65
2024/01/02 15:48:04;;;;;;;;;;;;;;;9.25;100.00;94244.16;10545807;28;1959;-67
2024/01/02 15:53:07;;;;;;;;;;;;;;;9.15;100.00;94272.75;10552971;28;2013;-68
2024/01/02 15:58:10;;;;;;;;;;;;;;;9.11;100.00;94260.25;10549129;28;4935;-68
2024/01/02 16:03:12;;;;;;;;;;;;;;;9.08;100.00;94260.84;10558323;28;1952;-69
2024/01/02 16:08:16;;;;;;;;;;;;;;;9.05;100.00;94262.25;10552047;28;2001;-69
2024/01/02 16:13:19;;;;;;;;;;;;;;;8.92;100.00;94279.16;10555014;28;2277;-72
2024/01/02 16:18:21;;;;;;;;;;;;;;;8.75;100.00;94290.47;10568789;28;2057;-69
2024/01/02 16:23:24;;;;;;;;;;;;;;;8.51;100.00;94282.59;10562481;28;2059;-70
2024/01/02 16:28:26;;;;;;;;;;;;;;;8.34;100.00;94303.78;10554654;28;1993;-71
2024/01/02 16:33:30;;;;;;;;;;;;;;;8.20;100.00;94309.09;10553715;28;1976;-67
2024/01/02 16:38:33;;;;;;;;;;;;;;;8.07;100.00;94297.25;10553125;28;2017;-67
2024/01/02 16:43:35;;;;;;;;;;;;;;;7.99;100.00;94302.50;10546568;28;1957;-71
2024/01/02 16:48:39;;;;;;;;;;;;;;;7.90;100.00;94305.06;10556103;28;1990;-66
2024/01/02 16:53:42;;;;;;;;;;;;;;;7.76;100.00;94307.69;10558145;27;2392;-68
2024/01/02 16:58:45;;;;;;;;;;;;;;;7.75;100.00;94278.53;10560783;27;4963;-68
2024/01/02 17:03:48;;;;;;;;;;;;;;;7.67;100.00;94274.66;10562742;28;2002;-67
2024/01/02 17:08:51;;;;;;;;;;;;;;;7.69;100.00;94245.72;10565406;28;2105;-68
2024/01/02 17:13:53;;;;;;;;;;;;;;;7.66;100.00;94262.38;10566307;28;1908;-67
2024/01/02 17:18:55;;;;;;;;;;;;;;;7.57;100.00;94264.94;10571344;28;1983;-68
2024/01/02 17:23:58;;;;;;;;;;;;;;;7.54;100.00;94244.09;10568698;28;2008;-69
2024/01/02 17:29:02;;;;;;;;;;;;;;;7.51;100.00;94235.88;10558613;28;2206;-71
2024/01/02 17:34:04;;;;;;;;;;;;;;;7.52;100.00;94240.13;10558915;27;3317;-73
2024/01/02 17:39:07;;;;;;;;;;;;;;;7.50;100.00;94216.34;10563721;27;2279;-68
2024/01/02 17:44:10;;;;;;;;;;;;;;;7.49;100.00;94214.75;10556629;28;2212;-69
2024/01/02 17:49:13;;;;;;;;;;;;;;;7.53;100.00;94221.13;10560608;27;2021;-68
2024/01/02 17:54:16;;;;;;;;;;;;;;;7.59;100.00;94203.13;10563977;27;2104;-66
2024/01/02 17:59:19;;;;;;;;;;;;;;;7.56;100.00;94193.78;10555507;28;1974;-68
2024/01/02 18:04:21;;;;;;;;;;;;;;;7.56;100.00;94179.63;10558949;27;2081;-68
2024/01/02 18:09:24;;;;;;;;;;;;;;;7.58;100.00;94186.28;10559044;28;2151;-68
2024/01/02 18:14:26;;;;;;;;;;;;;;;7.60;100.00;94175.28;10542529;27;1973;-68
2024/01/02 18:19:28;;;;;;;;;;;;;;;7.72;100.00;94145.41;10559877;28;1910;-70
2024/01/02 18:24:31;;;;;;;;;;;;;;;7.68;100.00;94163.91;10560351;27;1870;-67
2024/01/02 18:29:34;;;;;;;;;;;;;;;7.73;100.00;94136.28;10553848;28;2049;-68
2024/01/02 18:34:36;;;;;;;;;;;;;;;7.73;100.00;94138.97;10556943;28;3326;-68
2024/01/02 18:39:40;;;;;;;;;;;;;;;7.76;100.00;94128.47;10556180;28;2005;-67
2024/01/02 18:44:43;;;;;;;;;;;;;;;7.80;100.00;94129.47;10553123;28;1890;-67
2024/01/02 18:49:46;;;;;;;;;;;;;;;7.90;100.00;94107.09;10557791;28;1908;-68
2024/01/02 18:54:49;;;;;;;;;;;;;;;8.01;100.00;94096.97;10557274;28;1938;-67
2024/01/02 18:59:51;;;;;;;;;;;;;;;8.03;100.00;94094.78;10551280;28;4955;-66
2024/01/02 19:04:54;;;;;;;;;;;;;;;8.20;100.00;94072.75;10557040;28;2097;-67
2024/01/02 19:09:57;;;;;;;;;;;;;;;8.30;100.00;94064.53;10562610;28;1974;-67
2024/01/02 19:15:00;;;;;;;;;;;;;;;8.46;100.00;94067.69;10550202;28;1895;-67
2024/01/02 19:20:09;;;;;;;;;;;;;;;8.36;100.00;94068.72;10556358;28;2085;-67
2024/01/02 19:25:11;;;;;;;;;;;;;;;8.30;100.00;94061.84;10551565;28;2038;-67
2024/01/02 19:30:14;;;;;;;;;;;;;;;8.10;100.00;94063.06;10554946;28;2001;-67
2024/01/02 19:35:16;;;;;;;;;;;;;;;7.94;100.00;94070.59;10558941;28;2165;-66
2024/01/02 19:40:20;;;;;;;;;;;;;;;7.77;100.00;94075.78;10552773;28;2037;-67
2024/01/02 19:45:23;;;;;;;;;;;;;;;7.68;100.00;94064.94;10560824;28;2203;-67
2024/01/02 19:50:28;;;;;;;;;;;;;;;7.61;100.00;94053.06;10556520;28;1887;-68
2024/01/02 19:55:30;;;;;;;;;;;;;;;7.68;100.00;94050.78;10552380;28;1951;-68
2024/01/02 20:00:33;;;;;;;;;;;;;;;7.78;100.00;94040.69;10544833;28;5227;-67
2024/01/02 20:05:36;;;;;;;;;;;;;;;7.82;100.00;94035.53;10550494;28;1893;-67
2024/01/02 20:10:39;;;;;;;;;;;;;;;7.80;100.00;94040.41;10558277;28;1891;-66
2024/01/02 20:15:43;;;;;;;;;;;;;;;7.86;100.00;94025.81;10547624;28;2005;-67
2024/01/02 20:20:45;;;;;;;;;;;;;;;7.93;100.00;94015.50;10554342;28;2154;-68
2024/01/02 20:25:48;;;;;;;;;;;;;;;7.93;100.00;94017.41;10547453;28;2048;-67
2024/01/02 20:30:50;;;;;;;;;;;;;;;7.88;100.00;94010.25;10557728;28;1954;-67
2024/01/02 20:35:53;;;;;;;;;;;;;;;8.03;100.00;93977.84;10551118;28;1984;-69
2024/01/02 20:40:55;;;;;;;;;;;;;;;8.17;100.00;93966.31;10559851;28;1922;-67
2024/01/02 20:45:58;;;;;;;;;;;;;;;8.38;100.00;93970.91;10557826;27;1992;-67
2024/01/02 20:51:01;;;;;;;;;;;;;;;8.50;100.00;93964.25;10553836;28;1992;-67
2024/01/02 20:56:04;;;;;;;;;;;;;;;8.56;100.00;93971.84;10559695;28;4746;-67
2024/01/02 21:01:10;;;;;;;;;;;;;;;8.70;100.00;93971.00;10562562;28;1971;-67
2024/01/02 21:06:12;;;;;;;;;;;;;;;8.80;100.00;93962.72;10558456;28;2006;-66
2024/01/02 21:11:15;;;;;;;;;;;;;;;8.84;100.00;93958.31;10553240;27;2380;-68
2024/01/02 21:16:18;;;;;;;;;;;;;;;9.06;100.00;93955.59;10552684;28;2002;-67
2024/01/02 21:21:21;;;;;;;;;;;;;;;9.14;100.00;93952.16;10560186;28;1952;-67
2024/01/02 21:26:23;;;;;;;;;;;;;;;9.21;100.00;93938.31;10561723;27;2587;-67
2024/01/02 21:31:26;;;;;;;;;;;;;;;9.26;100.00;93942.75;10580145;27;1925;-67
2024/01/02 21:36:28;;;;;;;;;;;;;;;9.38;100.00;93967.09;10559508;28;2159;-67
2024/01/02 21:41:31;;;;;;;;;;;;;;;9.39;100.00;93957.94;10552925;28;1947;-69
2024/01/02 21:46:33;;;;;;;;;;;;;;;9.38;100.00;93951.78;10552256;28;2073;-68
2024/01/02 21:51:35;;;;;;;;;;;;;;;9.56;100.00;93952.66;10554556;28;2134;-68
2024/01/02 21:56:38;;;;;;;;;;;;;;;9.44;100.00;93955.13;10551732;28;4850;-68
2024/01/02 22:01:40;;;;;;;;;;;;;;;9.49;100.00;93946.94;10540819;28;2017;-69
2024/01/02 22:06:43;;;;;;;;;;;;;;;9.53;100.00;93958.63;10556180;27;2312;-75
2024/01/02 22:11:46;;;;;;;;;;;;;;;9.49;100.00;93963.03;10557693;27;2192;-69
2024/01/02 22:16:49;;;;;;;;;;;;;;;9.49;100.00;93979.13;10557672;28;1998;-67
2024/01/02 22:21:51;;;;;;;;;;;;;;;9.54;100.00;93992.38;10558166;27;1997;-67
2024/01/02 22:26:54;;;;;;;;;;;;;;;9.46;100.00;94002.00;10550196;28;2068;-68
2024/01/02 22:31:56;;;;;;;;;;;;;;;9.42;100.00;94005.63;10550404;27;1910;-67
2024/01/02 22:36:59;;;;;;;;;;;;;;;9.49;100.00;94005.97;10559499;27;1942;-67
2024/01/02 22:42:01;;;;;;;;;;;;;;;9.43;100.00;94007.19;10554097;27;2198;-67
2024/01/02 22:47:04;;;;;;;;;;;;;;;9.52;100.00;94004.53;10551296;27;1988;-68
2024/01/02 22:52:08;;;;;;;;;;;;;;;9.43;100.00;94023.28;10547055;28;1930;-68
2024/01/02 22:57:11;;;;;;;;;;;;;;;9.46;100.00;94026.13;10558006;28;2182;-64
2024/01/02 23:02:13;;;;;;;;;;;;;;;9.43;100.00;94023.28;10558140;27;2584;-67
2024/01/02 23:07:17;;;;;;;;;;;;;;;9.39;100.00;94012.38;10550617;28;1951;-67
2024/01/02 23:12:20;;;;;;;;;;;;;;;9.38;100.00;94036.81;10556938;27;2034;-71
2024/01/02 23:17:23;;;;;;;;;;;;;;;9.38;100.00;94036.81;10553350;27;2073;-72
2024/01/02 23:22:26;;;;;;;;;;;;;;;9.35;100.00;94037.41;10553227;27;2057;-68
2024/01/02 23:27:28;;;;;;;;;;;;;;;9.26;100.00;94040.06;10552051;27;2795;-70
2024/01/02 23:32:31;;;;;;;;;;;;;;;9.25;100.00;94035.03;10561383;28;1937;-68
2024/01/02 23:37:34;;;;;;;;;;;;;;;9.20;100.00;94047.44;10556377;28;1930;-74
2024/01/02 23:42:36;;;;;;;;;;;;;;;9.15;100.00;94055.59;10556441;28;1981;-74
2024/01/02 23:47:39;;;;;;;;;;;;;;;9.09;100.00;94050.69;10547522;28;2072;-72
2024/01/02 23:52:41;;;;;;;;;;;;;;;9.00;100.00;94058.66;10552669;28;1899;-68
2024/01/02 23:57:47;;;;;;;;;;;;;;;9.18;100.00;94084.50;10547630;28;5002;-68
